createdAt,value
2022-11-13T00:02:09.881Z,14
2022-11-13T00:07:09.967Z,14.9
2022-11-13T00:12:09.870Z,12.8
2022-11-13T00:17:09.902Z,15.4
2022-11-13T00:22:09.870Z,15.4
2022-11-13T00:27:09.901Z,15.7
2022-11-13T00:32:09.870Z,13.3
2022-11-13T00:37:09.864Z,14.3
2022-11-13T00:42:09.864Z,16.3
2022-11-13T00:47:09.865Z,13.6
2022-11-13T00:52:09.904Z,13.6
2022-11-13T00:57:09.898Z,16.2
2022-11-13T01:02:09.903Z,15.5
2022-11-13T01:07:09.926Z,14.6
2022-11-13T01:12:09.923Z,14.2
2022-11-13T01:17:09.878Z,14.4
2022-11-13T01:22:09.910Z,14.4
2022-11-13T01:27:09.885Z,13.6
2022-11-13T01:32:10.003Z,10.3
2022-11-13T01:37:09.892Z,13.6
2022-11-13T01:42:09.894Z,15.3
2022-11-13T01:47:09.896Z,16.7
2022-11-13T01:52:09.891Z,16.7
2022-11-13T01:57:09.892Z,18
2022-11-13T02:02:09.963Z,17.5
2022-11-13T02:07:09.921Z,17
2022-11-13T02:12:09.887Z,16.8
2022-11-13T02:17:09.892Z,15.4
2022-11-13T02:22:09.900Z,15.4
2022-11-13T02:27:09.897Z,16
2022-11-13T02:32:09.929Z,16.4
2022-11-13T02:37:09.899Z,18.4
2022-11-13T02:42:09.904Z,18.7
2022-11-13T02:47:09.935Z,20.2
2022-11-13T02:52:09.900Z,20.2
2022-11-13T02:57:09.903Z,17.2
2022-11-13T03:02:09.940Z,17.9
2022-11-13T03:07:09.992Z,18.7
2022-11-13T03:12:09.935Z,17.7
2022-11-13T03:17:09.934Z,15.1
2022-11-13T03:22:09.903Z,15.1
2022-11-13T03:27:09.941Z,14.8
2022-11-13T03:32:09.944Z,13.6
2022-11-13T03:37:09.941Z,16.9
2022-11-13T03:42:09.942Z,19.1
2022-11-13T03:47:09.940Z,17.8
2022-11-13T03:52:09.905Z,17.8
2022-11-13T03:57:09.939Z,16.5
2022-11-13T04:02:09.973Z,15.6
2022-11-13T04:07:09.987Z,13.7
2022-11-13T04:12:09.908Z,16.1
2022-11-13T04:17:10.023Z,16.3
2022-11-13T04:22:10.003Z,16.3
2022-11-13T04:27:10.041Z,14.3
2022-11-13T04:32:09.983Z,9.7
2022-11-13T04:37:10.054Z,9.2
2022-11-13T04:42:09.942Z,12.8
2022-11-13T04:47:09.975Z,13.6
2022-11-13T04:52:09.978Z,13.6
2022-11-13T04:57:09.980Z,12.6
2022-11-13T05:02:09.984Z,13
2022-11-13T05:07:10.036Z,12.4
2022-11-13T05:12:09.980Z,11
2022-11-13T05:17:09.996Z,12.1
2022-11-13T05:22:09.962Z,12.1
2022-11-13T05:27:15.835Z,11.2
2022-11-13T05:32:10.012Z,11.2
2022-11-13T05:37:09.976Z,11.1
2022-11-13T05:42:09.978Z,9.8
2022-11-13T05:47:10.010Z,13.2
2022-11-13T05:52:09.981Z,13.2
2022-11-13T05:57:10.007Z,19.1
2022-11-13T06:02:10.085Z,13.8
2022-11-13T06:07:10.109Z,11.3
2022-11-13T06:12:09.980Z,12.8
2022-11-13T06:17:10.025Z,13.6
2022-11-13T06:22:09.993Z,13.6
2022-11-13T06:27:10.030Z,13.6
2022-11-13T06:32:10.008Z,12.2
2022-11-13T06:37:10.013Z,14.4
2022-11-13T06:42:10.042Z,15.3
2022-11-13T06:47:10.007Z,12.9
2022-11-13T06:52:10.046Z,12.9
2022-11-13T06:57:10.063Z,14.9
2022-11-13T07:02:10.028Z,14.5
2022-11-13T07:07:10.120Z,14.4
2022-11-13T07:12:10.076Z,14
2022-11-13T07:17:10.759Z,13.6
2022-11-13T07:22:10.037Z,13.6
2022-11-13T07:27:10.039Z,13.9
2022-11-13T07:32:10.083Z,11.2
2022-11-13T07:37:10.057Z,11.7
2022-11-13T07:42:10.048Z,11.9
2022-11-13T07:47:10.087Z,11
2022-11-13T07:52:10.051Z,11
2022-11-13T07:57:10.053Z,13.3
2022-11-13T08:02:10.055Z,10.6
2022-11-13T08:07:10.072Z,11.7
2022-11-13T08:12:10.055Z,13.3
2022-11-13T08:17:10.048Z,9.5
2022-11-13T08:22:10.049Z,9.5
2022-11-13T08:27:10.057Z,9.3
2022-11-13T08:32:10.088Z,11.2
2022-11-13T08:37:10.093Z,10.6
2022-11-13T08:42:10.053Z,10.8
2022-11-13T08:47:10.060Z,9.5
2022-11-13T08:52:10.052Z,9.5
2022-11-13T08:57:10.088Z,9.2
2022-11-13T09:02:10.005Z,7.8
2022-11-13T09:07:10.173Z,8.6
2022-11-13T09:12:10.024Z,10
2022-11-13T09:17:10.007Z,9.7
2022-11-13T09:22:10.022Z,9.7
2022-11-13T09:27:10.022Z,10.3
2022-11-13T09:32:10.067Z,9.7
2022-11-13T09:37:10.082Z,11.9
2022-11-13T09:42:10.060Z,9.3
2022-11-13T09:47:10.049Z,9.7
2022-11-13T09:52:10.030Z,9.7
2022-11-13T09:57:10.019Z,9
2022-11-13T10:02:10.036Z,10.7
2022-11-13T10:07:10.085Z,10
2022-11-13T10:12:10.037Z,14.1
2022-11-13T10:17:10.053Z,15.8
2022-11-13T10:22:31.589Z,15.8
2022-11-13T10:27:10.050Z,20.5
2022-11-13T10:32:10.053Z,12.5
2022-11-13T10:37:10.048Z,16.5
2022-11-13T10:42:10.040Z,19.7
2022-11-13T10:47:10.045Z,12.3
2022-11-13T10:52:11.199Z,12.3
2022-11-13T10:57:10.051Z,12.6
2022-11-13T11:02:10.060Z,13.8
2022-11-13T11:07:21.549Z,17
2022-11-13T11:12:10.062Z,13.8
2022-11-13T11:17:10.057Z,13.4
2022-11-13T11:22:10.015Z,13.4
2022-11-13T11:27:10.061Z,13.3
2022-11-13T11:32:10.071Z,11.9
2022-11-13T11:37:10.052Z,10.8
2022-11-13T11:42:10.076Z,13.6
2022-11-13T11:47:10.080Z,11.9
2022-11-13T11:52:10.054Z,11.9
2022-11-13T11:57:10.078Z,12.3
2022-11-13T12:02:10.083Z,14.4
2022-11-13T12:07:10.119Z,10.2
2022-11-13T12:12:10.074Z,15
2022-11-13T12:17:16.814Z,13.9
2022-11-13T12:22:10.090Z,13.9
2022-11-13T12:27:10.074Z,14.2
2022-11-13T12:32:10.107Z,15.8
2022-11-13T12:37:10.091Z,18.8
2022-11-13T12:42:10.077Z,25.2
2022-11-13T12:47:10.093Z,23.2
2022-11-13T12:52:10.079Z,23.2
2022-11-13T12:57:10.103Z,17.8
2022-11-13T13:02:10.101Z,14.3
2022-11-13T13:07:10.232Z,13.9
2022-11-13T13:12:10.091Z,19.2
2022-11-13T13:17:10.096Z,19.2
2022-11-13T13:22:10.115Z,24.6
2022-11-13T13:27:10.122Z,18
2022-11-13T13:32:12.845Z,26.8
2022-11-13T13:37:10.088Z,26.8
2022-11-13T13:42:10.105Z,19.4
2022-11-13T13:47:10.097Z,19.4
2022-11-13T13:52:10.113Z,18.1
2022-11-13T13:57:10.105Z,17.7
2022-11-13T14:02:10.205Z,19.6
2022-11-13T14:07:10.142Z,17.1
2022-11-13T14:12:10.346Z,20.5
2022-11-13T14:17:10.111Z,20.5
2022-11-13T14:22:10.110Z,37.7
2022-11-13T14:27:10.132Z,23.1
2022-11-13T14:32:10.128Z,24.2
2022-11-13T14:37:10.108Z,19.6
2022-11-13T14:42:10.109Z,26
2022-11-13T14:47:10.107Z,26
2022-11-13T14:52:10.144Z,29.4
2022-11-13T14:57:10.100Z,23.7
2022-11-13T15:02:10.124Z,19.2
2022-11-13T15:07:10.176Z,18.5
2022-11-13T15:12:10.131Z,26.6
2022-11-13T15:17:10.109Z,26.6
2022-11-13T15:22:26.625Z,20.8
2022-11-13T15:27:10.142Z,18.2
2022-11-13T15:32:10.139Z,21.2
2022-11-13T15:37:10.125Z,19.8
2022-11-13T15:42:10.139Z,15.3
2022-11-13T15:47:10.116Z,15.3
2022-11-13T15:52:10.123Z,17.5
2022-11-13T15:57:10.167Z,16.3
2022-11-13T16:02:10.132Z,14.4
2022-11-13T16:07:10.207Z,15
2022-11-13T16:12:10.137Z,25.7
2022-11-13T16:17:10.146Z,25.7
2022-11-13T16:22:10.118Z,17.9
2022-11-13T16:27:10.149Z,17.3
2022-11-13T16:32:10.152Z,19.8
2022-11-13T16:37:10.129Z,18.3
2022-11-13T16:42:10.156Z,29.8
2022-11-13T16:47:10.143Z,29.8
2022-11-13T16:52:10.131Z,26
2022-11-13T16:57:10.144Z,26.2
2022-11-13T17:02:10.154Z,27.7
2022-11-13T17:07:10.226Z,33
2022-11-13T17:12:10.155Z,39.4
2022-11-13T17:17:10.163Z,39.4
2022-11-13T17:22:10.168Z,34.9
2022-11-13T17:27:10.157Z,35.6
2022-11-13T17:32:10.157Z,30.8
2022-11-13T17:37:10.149Z,30
2022-11-13T17:42:10.165Z,29.7
2022-11-13T17:47:10.164Z,29.7
2022-11-13T17:52:10.177Z,26.2
2022-11-13T17:57:10.277Z,28.3
2022-11-13T18:02:10.178Z,33.3
2022-11-13T18:07:10.215Z,30.2
2022-11-13T18:12:10.158Z,26.2
2022-11-13T18:17:10.181Z,26.2
2022-11-13T18:22:10.157Z,28.4
2022-11-13T18:27:10.179Z,22.3
2022-11-13T18:32:10.187Z,27.7
2022-11-13T18:37:10.175Z,23.7
2022-11-13T18:42:10.164Z,30.9
2022-11-13T18:47:10.186Z,30.9
2022-11-13T18:52:10.181Z,25.7
2022-11-13T18:57:10.192Z,38.6
2022-11-13T19:02:10.269Z,34.9
2022-11-13T19:07:10.205Z,40.4
2022-11-13T19:12:10.193Z,37.8
2022-11-13T19:17:10.187Z,37.8
2022-11-13T19:22:10.188Z,36
2022-11-13T19:27:10.196Z,32.2
2022-11-13T19:32:10.215Z,29.5
2022-11-13T19:37:13.759Z,25.8
2022-11-13T19:42:10.199Z,23.6
2022-11-13T19:47:10.194Z,23.6
2022-11-13T19:52:10.204Z,19.1
2022-11-13T19:57:10.207Z,19.3
2022-11-13T20:02:10.222Z,12.1
2022-11-13T20:07:10.237Z,20.4
2022-11-13T20:12:10.201Z,20.4
2022-11-13T20:17:10.207Z,20.4
2022-11-13T20:22:10.200Z,18.6
2022-11-13T20:27:10.212Z,15.8
2022-11-13T20:32:10.223Z,15.7
2022-11-13T20:37:10.203Z,19
2022-11-13T20:42:10.217Z,14.9
2022-11-13T20:47:10.209Z,14.9
2022-11-13T20:52:10.199Z,17
2022-11-13T20:57:10.210Z,15.3
2022-11-13T21:02:10.407Z,17.2
2022-11-13T21:07:10.383Z,20
2022-11-13T21:12:10.315Z,19
2022-11-13T21:17:10.271Z,19
2022-11-13T21:22:10.273Z,19.2
2022-11-13T21:27:10.278Z,16.7
2022-11-13T21:32:10.322Z,12.8
2022-11-13T21:37:10.281Z,12.1
2022-11-13T21:42:10.352Z,10.3
2022-11-13T21:47:10.279Z,10.3
2022-11-13T21:52:10.285Z,10
2022-11-13T21:57:10.278Z,10
2022-11-13T22:02:10.374Z,9.8
2022-11-13T22:07:10.348Z,9.2
2022-11-13T22:12:10.278Z,9.4
2022-11-13T22:17:10.285Z,9.4
2022-11-13T22:22:10.283Z,8.5
2022-11-13T22:27:10.280Z,10.2
2022-11-13T22:32:10.292Z,8.7
2022-11-13T22:37:10.285Z,9.8
2022-11-13T22:42:10.290Z,11.1
2022-11-13T22:47:10.286Z,11.1
2022-11-13T22:52:10.281Z,10.8
2022-11-13T22:57:10.291Z,12
2022-11-13T23:02:10.281Z,9.6
2022-11-13T23:07:10.360Z,13.3
2022-11-13T23:12:10.288Z,13.2
2022-11-13T23:17:10.325Z,13.2
2022-11-13T23:22:10.307Z,15.2
2022-11-13T23:27:10.285Z,17.4
2022-11-13T23:32:10.322Z,15
2022-11-13T23:37:10.288Z,10.8
2022-11-13T23:42:10.303Z,10.9
2022-11-13T23:47:10.291Z,10.9
2022-11-13T23:52:10.293Z,9.2
2022-11-13T23:57:10.290Z,11.3
